Monday, January 21, 2019, 10:08 PM GMT
Back to Local

CYYG, Charlottetown, P. E. I.

Location: , , Canada Lat: 46.283
Local Time: 10:08 PM GMT (22:08 GMT) Lon: -63.133
Time Zone: GMT Elev: 157 ft

Show me the last for .
Show Decoded

2019-01-21 21:36 METAR CYYG 212136Z 32005KT 6SM -SN OVC016 M07/M09 A2949 RMK SC8 SLP991 =
2019-01-21 21:00 METAR CYYG 212100Z 33008KT 3SM -SN OVC016 M07/M09 A2948 RMK SC8 SLP985 =
2019-01-21 20:54 METAR CYYG 212054Z 34008KT 3SM -SN OVC023 M07/M09 A2947 RMK SC8 SLP984 =
2019-01-21 20:00 METAR CYYG 212000Z 32009G15KT 10SM -SN OVC010 M06/M08 A2945 RMK SC8 PRESRR
                 SLP975 =
2019-01-21 19:19 METAR CYYG 211919Z 33013KT 6SM -FZDZ -SN BKN008 OVC018 M06/M08 A2941 RMK SF5SC3
                 SLP963
2019-01-21 19:00 METAR CYYG 211900Z 33012G17KT 5SM -FZDZ BKN008 OVC015 M06/M07 A2940 RMK SF7SC1
                 SLP960 =
2019-01-21 18:00 METAR CYYG 211800Z 30011G17KT 5SM -FZDZ BKN007 OVC014 M05/M07 A2938 RMK SF6SC2
                 SLP951 =
2019-01-21 17:37 METAR CYYG 211737Z 31013KT 5SM -FZDZ BKN007 OVC014 M05/M07 A2935 RMK SF6SC2
                 SLP943 =
2019-01-21 17:00 METAR CYYG 211700Z 31009G15KT 2 1/2SM -FZDZ BKN007 OVC020 M05/M05 A2933 RMK
                 SF7SC1 SLP936 =
2019-01-21 16:31 METAR CYYG 211631Z 31011KT 12SM -FZDZ BKN009 OVC020 M05/M05 A2931 RMK SF7SC1
                 SLP930 =
2019-01-21 16:00 METAR CYYG 211600Z 30011G16KT 3SM -FZDZ BR OVC007 M05/M05 A2930 RMK SF8 SLP927 =
2019-01-21 15:13 METAR CYYG 211513Z 30013KT 3SM -FZDZ OVC006 M04/M05 A2930 RMK SF8 SLP926 =
2019-01-21 15:00 METAR CYYG 211500Z 30009G15KT 3SM -FZRA -PL OVC006 M04/M05 A2930 RMK SF8 SLP926
                 =
2019-01-21 14:00 METAR CYYG 211400Z 32013KT 3SM -FZDZ -PL OVC005 M04/M04 A2924 RMK SF8 SLP907 =
2019-01-21 13:00 METAR CYYG 211300Z 30013G18KT 2SM -FZDZ OVC004 M03/M03 A2921 RMK SF8 SLP894 =
2019-01-21 12:00 METAR CYYG 211200Z 30006KT 250V320 2 1/2SM -FZDZ OVC004 M02/M02 A2914 RMK SF8
                 SLP871 =
2019-01-21 11:00 METAR CYYG 211100Z 31009KT 2 1/2SM -FZRA OVC004 M01/M01 A2911 RMK SF8 SLP862 =
2019-01-21 10:55 METAR CYYG 211055Z 31011KT 3SM -FZRA OVC005 M01/M01 A2911 RMK SF8 SLP862 =
2019-01-21 10:40 METAR CYYG 211040Z 31009KT 6SM BR OVC004 M01/M01 A2910 RMK SF8 PRESRR SLP858 =
2019-01-21 10:24 METAR CYYG 211024Z 31011KT 3SM -FZDZ BR OVC003 M01/M01 A2909 RMK SF8 SLP854 =
2019-01-21 10:04 METAR CYYG 211004Z 30011KT 4SM BR OVC003 00/00 A2908 RMK SF8 PRESRR SLP851 =
2019-01-21 10:00 METAR CYYG 211000Z 31009G18KT 4SM -RA BR OVC003 00/00 A2907 RMK SF8 PRESRR
                 SLP846 =
2019-01-21 09:48 METAR CYYG 210948Z 31013KT 3SM R03/3000VP6000FT/N -RA BR OVC003 03/03 A2905 RMK
                 SF8 WSHFT 0938 SLP841 =
2019-01-21 09:38 METAR CYYG 210938Z 26004KT 1/2SM R03/1800FT/N -RA FG VV003 05/05 A2905 RMK FG8
                 SLP841 =
2019-01-21 09:00 METAR CYYG 210900Z 17014G19KT 2SM R03/3000VP6000FT/U -RA BR OVC002 07/07 A2904
                 RMK SF8 VIS VRB 1-3 SLP836 DENSITY ALT 300FT =
2019-01-21 08:56 METAR CYYG 210856Z 16015KT 2SM R03/2800VP6000FT/N -RA BR OVC002 07/07 A2904 RMK
                 SF8 VIS VRB 1-3 SLP836 DENSITY ALT 300FT =
2019-01-21 08:41 METAR CYYG 210841Z 16013KT 2SM R03/3000VP6000FT/U -DZ BR BKN003 OVC011 06/06
                 A2903 RMK SF7SF1 VIS VRB 1-3 SLP833 DENSITY ALT 200FT =
2019-01-21 08:12 METAR CYYG 210812Z 17011KT 8SM R03/3000VP6000FT/N -RA BR OVC006 07/07 A2906 RMK
                 SF8 PRESFR SLP844 DENSITY ALT 300FT =
2019-01-21 08:00 METAR CYYG 210800Z 18010KT 2SM R03/2800V4500FT/N -RA BR OVC003 07/07 A2908 RMK
                 SF8 VIS VRB 1-3 SLP850 DENSITY ALT 300FT =
2019-01-21 07:32 METAR CYYG 210732Z 15011G17KT 2SM R03/2400FT/N -RA BR OVC002 07/07 A2908 RMK SF8
                 VIS VRB 1-3 PRESFR SLP849 DENSITY ALT 300FT =
2019-01-21 07:00 METAR CYYG 210700Z 17015KT 5SM R03/5000VP6000FT/U -RA BR SCT003 BKN013 OVC060
                 07/07 A2910 RMK SF4SF2SC2 SLP858 DENSITY ALT 300FT =
2019-01-21 06:00 METAR CYYG 210600Z 18018KT 6SM R03/3000VP6000FT/D -RA BR BKN002 BKN012 OVC060
                 08/08 A2912 RMK SF6SF1SC1 /R12/ SLP864 DENSITY ALT 400FT =
2019-01-21 05:00 METAR CYYG 210500Z 16017G23KT 1SM R03/2000FT/N -RA BR OVC002 08/08 A2915 RMK
                 FG4SF4 VIS VRB 1/2-11/2 SLP876 DENSITY ALT 300FT =
2019-01-21 04:54 METAR CYYG 210454Z 16016G22KT 1/4SM R03/1400V2000FT/N -RA BR VV001 08/08 A2915
                 RMK FG8 SLP876 DENSITY ALT 300FT =
2019-01-21 04:42 METAR CYYG 210442Z 16016G23KT 2SM -RA BR OVC002 08/08 A2916 RMK SF8 SLP879
                 DENSITY ALT 200FT =
2019-01-21 04:33 METAR CYYG 210433Z 17020G27KT 5SM -RA BR BKN005 OVC013 08/08 A2917 RMK SF6SF2
                 SLP881 DENSITY ALT 300FT =
2019-01-21 04:14 METAR CYYG 210414Z 17021G32KT 5SM RA BR BKN004 OVC015 08/08 A2918 RMK SF7SC1
                 SLP884 DENSITY ALT 200FT =
2019-01-21 04:00 METAR CYYG 210400Z 17017G25KT 5SM -RA BR BKN005 OVC015 07/07 A2919 RMK SF7SF1
                 SLP888 DENSITY ALT 200FT =
2019-01-21 03:00 METAR CYYG 210300Z 16025G31KT 8SM -RA BR BKN005 OVC016 08/08 A2920 RMK SF6SF2
                 /R04/ PRESFR SLP893 DENSITY ALT 300FT =
2019-01-21 02:46 METAR CYYG 210246Z 16021G27KT 8SM -RA BR BKN005 OVC015 08/08 A2922 RMK SF6ST2
                 PRESFR SLP898 DENSITY ALT 200FT =
2019-01-21 02:04 METAR CYYG 210204Z 16021G28KT 15SM RA BR BKN004 OVC015 08/08 A2927 RMK SF6SF2
                 SLP917 =
2019-01-21 02:00 METAR CYYG 210200Z 16022G28KT 5SM -RA BR BKN004 OVC017 08/08 A2928 RMK SF6SF2
                 SLP919 =
2019-01-21 01:42 METAR CYYG 210142Z 16022G29KT 5SM -RA BR BKN004 OVC014 08/08 A2929 RMK SF6SF2
                 PRESFR SLP923 =
2019-01-21 01:00 METAR CYYG 210100Z 16021KT 8SM -RA BR SCT003 OVC017 08/08 A2933 RMK ST4SC4
                 SLP934 =
2019-01-21 00:00 METAR CYYG 210000Z 15015G21KT 4SM -RA BR OVC002 06/06 A2939 RMK SF8 PRESFR
                 SLP957 =
2019-01-20 23:26 METAR CYYG 202326Z 15019G25KT 2SM -RA BR OVC002 05/05 A2942 RMK SF8 PRESFR
                 SLP968 =
2019-01-20 23:00 METAR CYYG 202300Z 15020G29KT 6SM -RA BR OVC003 04/04 A2945 RMK SF8 PRESFR
                 SLP978 =
2019-01-20 22:35 METAR CYYG 202235Z 14021G30KT 6SM RA OVC004 03/03 A2949 RMK SF8 PRESFR SLP989 =

Support USWX by starting your Amazon purchase here.